createdAt,value
2022-12-22T00:00:04.926Z,-4.38
2022-12-22T00:03:20.419Z,-4.43
2022-12-22T00:06:08.144Z,-4.38
2022-12-22T00:08:58.886Z,-4.42
2022-12-22T00:11:49.961Z,-4.47
2022-12-22T00:14:37.076Z,-4.52
2022-12-22T00:17:45.390Z,-4.46
2022-12-22T00:20:35.276Z,-4.38
2022-12-22T00:23:23.627Z,-4.36
2022-12-22T00:26:10.741Z,-4.38
2022-12-22T00:28:58.781Z,-4.36
2022-12-22T00:31:47.137Z,-4.37
2022-12-22T00:34:40.497Z,-4.44
2022-12-22T00:37:32.143Z,-4.46
2022-12-22T00:40:20.369Z,-4.44
2022-12-22T00:43:07.787Z,-4.50
2022-12-22T00:45:56.092Z,-4.48
2022-12-22T00:48:45.939Z,-4.47
2022-12-22T00:51:33.750Z,-4.44
2022-12-22T00:54:21.591Z,-4.46
2022-12-22T00:57:09.014Z,-4.48
2022-12-22T00:59:56.231Z,-4.46
2022-12-22T01:02:44.067Z,-4.43
2022-12-22T01:05:31.495Z,-4.41
2022-12-22T01:08:19.854Z,-4.38
2022-12-22T01:11:07.166Z,-4.39
2022-12-22T01:13:54.997Z,-4.36
2022-12-22T01:16:42.423Z,-4.33
2022-12-22T01:19:30.158Z,-4.35
2022-12-22T01:22:17.812Z,-4.41
2022-12-22T01:25:05.535Z,-4.46
2022-12-22T01:27:52.861Z,-4.49
2022-12-22T01:30:40.723Z,-4.46
2022-12-22T01:33:32.310Z,-4.49
2022-12-22T01:36:19.629Z,-4.52
2022-12-22T01:39:06.954Z,-4.53
2022-12-22T01:41:54.701Z,-4.58
2022-12-22T01:44:42.213Z,-4.58
2022-12-22T01:48:01.899Z,-4.55
2022-12-22T01:50:54.841Z,-4.56
2022-12-22T01:53:46.878Z,-4.55
2022-12-22T01:56:34.100Z,-4.56
2022-12-22T01:59:23.823Z,-4.54
2022-12-22T02:02:11.660Z,-4.53
2022-12-22T02:05:03.236Z,-4.51
2022-12-22T02:08:08.891Z,-4.49
2022-12-22T02:11:31.028Z,-4.47
2022-12-22T02:14:42.314Z,-4.47
2022-12-22T02:17:38.651Z,-4.50
2022-12-22T02:20:29.561Z,-4.56
2022-12-22T02:23:34.083Z,-4.61
2022-12-22T02:26:35.635Z,-4.68
2022-12-22T02:29:24.398Z,-4.69
2022-12-22T02:32:11.587Z,-4.68
2022-12-22T02:34:58.733Z,-4.63
2022-12-22T02:38:04.647Z,-4.61
2022-12-22T02:40:55.703Z,-4.58
2022-12-22T02:44:03.718Z,-4.62
2022-12-22T02:47:04.982Z,-4.65
2022-12-22T02:50:03.345Z,-4.71
2022-12-22T02:52:55.031Z,-4.78
2022-12-22T02:55:44.032Z,-4.78
2022-12-22T02:58:33.211Z,-4.76
2022-12-22T03:01:23.623Z,-4.74
2022-12-22T03:04:11.330Z,-4.68
2022-12-22T03:06:58.671Z,-4.65
2022-12-22T03:09:46.074Z,-4.65
2022-12-22T03:12:33.702Z,-4.60
2022-12-22T03:15:20.895Z,-4.59
2022-12-22T03:18:08.656Z,-4.61
2022-12-22T03:20:55.881Z,-4.56
2022-12-22T03:23:43.113Z,-4.60
2022-12-22T03:26:11.784Z,-4.67
2022-12-22T03:28:40.575Z,-4.67
2022-12-22T03:31:09.506Z,-4.67
2022-12-22T03:33:38.314Z,-4.69
2022-12-22T03:36:08.391Z,-4.67
2022-12-22T03:38:36.872Z,-4.66
2022-12-22T03:41:06.266Z,-4.66
2022-12-22T03:43:53.580Z,-4.64
2022-12-22T03:46:31.463Z,-4.65
2022-12-22T03:49:11.242Z,-4.65
2022-12-22T03:51:45.752Z,-4.61
2022-12-22T03:54:17.665Z,-4.58
2022-12-22T03:56:47.488Z,-4.54
2022-12-22T03:59:16.922Z,-4.51
2022-12-22T04:01:51.355Z,-4.47
2022-12-22T04:04:23.210Z,-4.42
2022-12-22T04:06:52.512Z,-4.38
2022-12-22T04:09:22.690Z,-4.42
2022-12-22T04:12:10.261Z,-4.45
2022-12-22T04:14:39.155Z,-4.57
2022-12-22T04:17:08.553Z,-4.66
2022-12-22T04:19:37.154Z,-4.70
2022-12-22T04:22:05.730Z,-4.72
2022-12-22T04:24:34.408Z,-4.74
2022-12-22T04:27:03.216Z,-4.69
2022-12-22T04:29:31.781Z,-4.68
2022-12-22T04:32:00.436Z,-4.66
2022-12-22T04:34:29.153Z,-4.69
2022-12-22T04:37:07.096Z,-4.70
2022-12-22T04:39:41.684Z,-4.69
2022-12-22T04:42:10.776Z,-4.69
2022-12-22T04:44:39.362Z,-4.70
2022-12-22T04:47:08.049Z,-4.67
2022-12-22T04:49:36.960Z,-4.65
2022-12-22T04:52:06.038Z,-4.64
2022-12-22T04:54:34.623Z,-4.64
2022-12-22T04:57:03.302Z,-4.69
2022-12-22T04:59:31.996Z,-4.74
2022-12-22T05:02:00.794Z,-4.70
2022-12-22T05:04:29.683Z,-4.70
2022-12-22T05:06:58.457Z,-4.73
2022-12-22T05:09:27.145Z,-4.74
2022-12-22T05:11:55.769Z,-4.72
2022-12-22T05:14:24.126Z,-4.68
2022-12-22T05:16:52.983Z,-4.68
2022-12-22T05:19:24.974Z,-4.65
2022-12-22T05:21:58.054Z,-4.61
2022-12-22T05:24:26.912Z,-4.57
2022-12-22T05:26:55.522Z,-4.57
2022-12-22T05:29:24.304Z,-4.58
2022-12-22T05:31:53.102Z,-4.54
2022-12-22T05:34:21.581Z,-4.49
2022-12-22T05:36:50.249Z,-4.48
2022-12-22T05:39:19.673Z,-4.45
2022-12-22T05:41:48.494Z,-4.46
2022-12-22T05:44:17.212Z,-4.49
2022-12-22T05:46:46.167Z,-4.57
2022-12-22T05:49:14.837Z,-4.63
2022-12-22T05:51:43.412Z,-4.59
2022-12-22T05:54:12.509Z,-4.57
2022-12-22T05:56:41.192Z,-4.55
2022-12-22T05:59:11.373Z,-4.52
2022-12-22T06:01:40.062Z,-4.49
2022-12-22T06:04:08.592Z,-4.48
2022-12-22T06:06:37.265Z,-4.48
2022-12-22T06:09:06.262Z,-4.50
2022-12-22T06:11:34.741Z,-4.51
2022-12-22T06:14:03.575Z,-4.50
2022-12-22T06:16:32.697Z,-4.52
2022-12-22T06:19:01.441Z,-4.53
2022-12-22T06:21:30.103Z,-4.51
2022-12-22T06:23:59.914Z,-4.48
2022-12-22T06:26:28.503Z,-4.47
2022-12-22T06:28:57.188Z,-4.44
2022-12-22T06:31:26.097Z,-4.46
2022-12-22T06:33:54.555Z,-4.44
2022-12-22T06:36:23.549Z,-4.41
2022-12-22T06:38:52.343Z,-4.40
2022-12-22T06:41:40.684Z,-4.43
2022-12-22T06:44:09.576Z,-4.45
2022-12-22T06:46:38.464Z,-4.43
2022-12-22T06:49:07.152Z,-4.39
2022-12-22T06:51:36.249Z,-4.34
2022-12-22T06:54:05.035Z,-4.32
2022-12-22T06:56:33.619Z,-4.27
2022-12-22T06:59:02.923Z,-4.25
2022-12-22T07:01:31.711Z,-4.25
2022-12-22T07:04:00.284Z,-4.21
2022-12-22T07:06:29.599Z,-4.18
2022-12-22T07:08:57.971Z,-4.12
2022-12-22T07:11:26.885Z,-4.10
2022-12-22T07:13:55.862Z,-4.12
2022-12-22T07:16:24.357Z,-4.14
2022-12-22T07:18:53.056Z,-4.11
2022-12-22T07:21:22.018Z,-4.16
2022-12-22T07:23:50.500Z,-4.22
2022-12-22T07:26:19.455Z,-4.33
2022-12-22T07:28:48.387Z,-4.29
2022-12-22T07:31:18.996Z,-4.23
2022-12-22T07:33:47.597Z,-4.18
2022-12-22T07:36:18.952Z,-4.16
2022-12-22T07:38:50.215Z,-4.13
2022-12-22T07:41:39.481Z,-4.10
2022-12-22T07:44:08.972Z,-4.07
2022-12-22T07:46:39.634Z,-4.11
2022-12-22T07:49:29.558Z,-4.11
2022-12-22T07:51:59.292Z,-4.10
2022-12-22T07:54:29.128Z,-4.08
2022-12-22T07:56:57.793Z,-4.07
2022-12-22T07:59:26.586Z,-4.11
2022-12-22T08:01:55.528Z,-4.03
2022-12-22T08:04:24.427Z,-3.97
2022-12-22T08:06:53.049Z,-3.91
2022-12-22T08:09:23.159Z,-3.82
2022-12-22T08:11:51.848Z,-3.76
2022-12-22T08:14:20.337Z,-3.71
2022-12-22T08:16:49.343Z,-3.69
2022-12-22T08:19:18.023Z,-3.68
2022-12-22T08:21:52.501Z,-3.62
2022-12-22T08:24:22.585Z,-3.56
2022-12-22T08:26:55.805Z,-3.50
2022-12-22T08:29:30.489Z,-3.46
2022-12-22T08:32:01.019Z,-3.46
2022-12-22T08:34:30.521Z,-3.43
2022-12-22T08:37:03.466Z,-3.36
2022-12-22T08:39:35.281Z,-3.35
2022-12-22T08:42:07.495Z,-3.37
2022-12-22T08:44:37.136Z,-3.38
2022-12-22T08:47:07.979Z,-3.37
2022-12-22T08:49:41.573Z,-3.33
2022-12-22T08:52:16.053Z,-3.29
2022-12-22T08:54:47.650Z,-3.28
2022-12-22T08:57:16.540Z,-3.29
2022-12-22T08:59:45.080Z,-3.32
2022-12-22T09:02:14.102Z,-3.30
2022-12-22T09:04:43.219Z,-3.26
2022-12-22T09:07:11.902Z,-3.22
2022-12-22T09:09:40.590Z,-3.25
2022-12-22T09:12:09.143Z,-3.23
2022-12-22T09:14:37.963Z,-3.19
2022-12-22T09:17:06.647Z,-3.19
2022-12-22T09:19:35.432Z,-3.17
2022-12-22T09:22:04.530Z,-3.16
2022-12-22T09:24:33.420Z,-3.21
2022-12-22T09:27:03.949Z,-3.24
2022-12-22T09:29:32.540Z,-3.18
2022-12-22T09:32:01.392Z,-3.13
2022-12-22T09:34:30.557Z,-3.09
2022-12-22T09:36:59.002Z,-3.04
2022-12-22T09:39:29.459Z,-3.02
2022-12-22T09:41:59.832Z,-2.95
2022-12-22T09:44:45.162Z,-2.90
2022-12-22T09:47:56.830Z,-2.89
2022-12-22T09:50:27.387Z,-2.84
2022-12-22T09:53:03.312Z,-2.85
2022-12-22T09:55:47.522Z,-2.88
2022-12-22T09:58:43.381Z,-2.98
2022-12-22T10:01:14.786Z,-3.03
2022-12-22T10:04:00.401Z,-3.08
2022-12-22T10:06:49.176Z,-3.13
2022-12-22T10:09:48.195Z,-3.15
2022-12-22T10:12:16.449Z,-3.07
2022-12-22T10:14:48.585Z,-3.01
2022-12-22T10:17:16.897Z,-3.01
2022-12-22T10:19:47.716Z,-3.04
2022-12-22T10:22:36.589Z,-3.07
2022-12-22T10:25:06.475Z,-2.99
2022-12-22T10:27:42.894Z,-2.91
2022-12-22T10:30:25.692Z,-2.83
2022-12-22T10:33:08.316Z,-2.79
2022-12-22T10:35:53.088Z,-2.75
2022-12-22T10:38:24.693Z,-2.70
2022-12-22T10:41:01.913Z,-2.71
2022-12-22T10:43:38.891Z,-2.71
2022-12-22T10:46:07.783Z,-2.70
2022-12-22T10:48:38.917Z,-2.63
2022-12-22T10:51:10.315Z,-2.61
2022-12-22T10:53:49.984Z,-2.58
2022-12-22T10:56:25.407Z,-2.52
2022-12-22T10:58:56.498Z,-2.48
2022-12-22T11:01:34.518Z,-2.44
2022-12-22T11:04:27.161Z,-2.43
2022-12-22T11:06:56.354Z,-2.42
2022-12-22T11:09:35.284Z,-2.40
2022-12-22T11:12:26.392Z,-2.38
2022-12-22T11:15:24.252Z,-2.33
2022-12-22T11:18:03.287Z,-2.38
2022-12-22T11:20:44.670Z,-2.40
2022-12-22T11:23:26.980Z,-2.46
2022-12-22T11:25:58.533Z,-2.46
2022-12-22T11:28:44.367Z,-2.41
2022-12-22T11:31:31.674Z,-2.41
2022-12-22T11:34:21.885Z,-2.44
2022-12-22T11:36:50.367Z,-2.39
2022-12-22T11:39:29.648Z,-2.36
2022-12-22T11:42:25.065Z,-2.30
2022-12-22T11:45:03.304Z,-2.17
2022-12-22T11:47:47.524Z,-2.15
2022-12-22T11:50:46.070Z,-2.20
2022-12-22T11:53:38.143Z,-2.22
2022-12-22T11:56:07.244Z,-2.32
2022-12-22T11:59:00.809Z,-2.39
2022-12-22T12:01:52.362Z,-2.42
2022-12-22T12:04:37.559Z,-2.35
2022-12-22T12:07:21.914Z,-2.31
2022-12-22T12:10:26.484Z,-2.38
2022-12-22T12:13:30.060Z,-2.36
2022-12-22T12:16:23.117Z,-2.37
2022-12-22T12:19:13.747Z,-2.40
2022-12-22T12:21:59.072Z,-2.47
2022-12-22T12:24:38.357Z,-2.49
2022-12-22T12:27:44.645Z,-2.52
2022-12-22T12:33:18.353Z,-2.55
2022-12-22T12:35:57.428Z,-2.56
2022-12-22T12:39:09.085Z,-2.56
2022-12-22T12:41:59.677Z,-2.55
2022-12-22T12:44:33.542Z,-2.53
2022-12-22T12:47:07.645Z,-2.49
2022-12-22T12:49:38.849Z,-2.46
2022-12-22T12:52:08.232Z,-2.43
2022-12-22T12:54:45.171Z,-2.44
2022-12-22T12:57:26.692Z,-2.39
2022-12-22T12:59:58.785Z,-2.35
2022-12-22T13:02:27.719Z,-2.35
2022-12-22T13:05:08.337Z,-2.31
2022-12-22T13:08:15.742Z,-2.32
2022-12-22T13:10:47.378Z,-2.35
2022-12-22T13:13:21.898Z,-2.34
2022-12-22T13:15:59.817Z,-2.26
2022-12-22T13:18:34.848Z,-2.20
2022-12-22T13:24:23.964Z,-2.19
2022-12-22T13:26:56.069Z,-2.17
2022-12-22T13:29:29.366Z,-2.15
2022-12-22T13:32:19.895Z,-2.10
2022-12-22T13:35:29.066Z,-2.07
2022-12-22T13:37:43.632Z,-2.02
2022-12-22T13:40:25.394Z,-2.01
2022-12-22T13:42:57.714Z,-1.96
2022-12-22T13:45:34.936Z,-1.93
2022-12-22T13:48:09.876Z,-1.96
2022-12-22T13:50:44.507Z,-1.96
2022-12-22T13:53:42.258Z,-1.98
2022-12-22T13:56:48.838Z,-2.01
2022-12-22T13:59:39.745Z,-1.95
2022-12-22T14:02:08.284Z,-1.95
2022-12-22T14:04:38.859Z,-1.91
2022-12-22T14:07:15.275Z,-1.85
2022-12-22T14:09:55.183Z,-1.86
2022-12-22T14:12:27.858Z,-1.85
2022-12-22T14:14:58.867Z,-1.83
2022-12-22T14:17:35.609Z,-1.87
2022-12-22T14:20:20.239Z,-1.89
2022-12-22T14:22:57.969Z,-1.85
2022-12-22T14:25:33.888Z,-1.80
2022-12-22T14:28:05.157Z,-1.78
2022-12-22T14:30:42.126Z,-1.81
2022-12-22T14:33:30.161Z,-1.87
2022-12-22T14:36:23.834Z,-1.94
2022-12-22T14:38:55.010Z,-1.96
2022-12-22T14:41:41.686Z,-1.96
2022-12-22T14:44:30.708Z,-2.01
2022-12-22T14:47:20.568Z,-2.04
2022-12-22T14:50:17.481Z,-2.12
2022-12-22T14:52:51.289Z,-2.20
2022-12-22T14:55:41.573Z,-2.23
2022-12-22T14:58:13.130Z,-2.24
2022-12-22T15:01:03.763Z,-2.23
2022-12-22T15:03:35.815Z,-2.21
2022-12-22T15:06:23.939Z,-2.18
2022-12-22T15:09:15.792Z,-2.17
2022-12-22T15:11:58.170Z,-2.18
2022-12-22T15:14:35.094Z,-2.18
2022-12-22T15:17:08.041Z,-2.17
2022-12-22T15:19:37.194Z,-2.15
2022-12-22T15:22:07.862Z,-2.15
2022-12-22T15:24:36.673Z,-2.18
2022-12-22T15:27:05.380Z,-2.19
2022-12-22T15:29:34.445Z,-2.20
2022-12-22T15:32:03.443Z,-2.21
2022-12-22T15:34:32.740Z,-2.23
2022-12-22T15:37:01.347Z,-2.24
2022-12-22T15:39:30.317Z,-2.25
2022-12-22T15:41:59.008Z,-2.21
2022-12-22T15:44:28.486Z,-2.16
2022-12-22T15:46:59.959Z,-2.08
2022-12-22T15:49:30.731Z,-2.00
2022-12-22T15:52:02.932Z,-1.90
2022-12-22T15:54:35.356Z,-1.81
2022-12-22T15:57:04.073Z,-1.70
2022-12-22T15:59:32.716Z,-1.62
2022-12-22T16:02:02.346Z,-1.53
2022-12-22T16:04:31.719Z,-1.45
2022-12-22T16:07:00.541Z,-1.41
2022-12-22T16:09:33.495Z,-1.39
2022-12-22T16:12:02.400Z,-1.42
2022-12-22T16:14:36.826Z,-1.42
2022-12-22T16:17:18.494Z,-1.42
2022-12-22T16:19:47.605Z,-1.41
2022-12-22T16:22:19.518Z,-1.40
2022-12-22T16:24:50.365Z,-1.41
2022-12-22T16:27:19.283Z,-1.44
2022-12-22T16:29:53.104Z,-1.47
2022-12-22T16:32:30.275Z,-1.47
2022-12-22T16:35:15.646Z,-1.47
2022-12-22T16:37:45.184Z,-1.49
2022-12-22T16:40:13.839Z,-1.53
2022-12-22T16:45:38.729Z,-1.58
2022-12-22T16:48:14.208Z,-1.57
2022-12-22T16:50:47.054Z,-1.57
2022-12-22T16:53:15.685Z,-1.57
2022-12-22T16:55:44.483Z,-1.56
2022-12-22T16:58:14.238Z,-1.55
2022-12-22T17:00:45.377Z,-1.56
2022-12-22T17:03:23.645Z,-1.60
2022-12-22T17:05:56.325Z,-1.62
2022-12-22T17:08:32.573Z,-1.64
2022-12-22T17:11:10.536Z,-1.65
2022-12-22T17:13:39.991Z,-1.69
2022-12-22T17:16:19.313Z,-1.73
2022-12-22T17:18:48.641Z,-1.75
2022-12-22T17:21:20.521Z,-1.76
2022-12-22T17:23:52.234Z,-1.78
2022-12-22T17:26:23.588Z,-1.80
2022-12-22T17:28:52.888Z,-1.85
2022-12-22T17:31:22.975Z,-1.90
2022-12-22T17:33:51.701Z,-1.94
2022-12-22T17:36:33.910Z,-1.97
2022-12-22T17:39:04.834Z,-2.05
2022-12-22T17:41:33.417Z,-2.12
2022-12-22T17:44:01.853Z,-2.17
2022-12-22T17:46:30.963Z,-2.18
2022-12-22T17:48:59.680Z,-2.16
2022-12-22T17:51:29.478Z,-2.15
2022-12-22T17:53:59.377Z,-2.19
2022-12-22T17:56:29.633Z,-2.26
2022-12-22T17:58:58.219Z,-2.34
2022-12-22T18:01:30.351Z,-2.39
2022-12-22T18:03:59.396Z,-2.43
2022-12-22T18:06:33.856Z,-2.46
2022-12-22T18:09:04.146Z,-2.44
2022-12-22T18:11:33.634Z,-2.43
2022-12-22T18:14:03.232Z,-2.46
2022-12-22T18:16:32.092Z,-2.53
2022-12-22T18:19:00.909Z,-2.58
2022-12-22T18:21:29.803Z,-2.64
2022-12-22T18:23:58.695Z,-2.67
2022-12-22T18:26:29.955Z,-2.73
2022-12-22T18:28:59.243Z,-2.76
2022-12-22T18:31:27.908Z,-2.77
2022-12-22T18:33:56.928Z,-2.78
2022-12-22T18:36:31.811Z,-2.79
2022-12-22T18:39:01.749Z,-2.78
2022-12-22T18:41:34.985Z,-2.77
2022-12-22T18:44:04.159Z,-2.77
2022-12-22T18:46:32.775Z,-2.78
2022-12-22T18:49:05.529Z,-2.79
2022-12-22T18:51:35.279Z,-2.83
2022-12-22T18:54:04.020Z,-2.88
2022-12-22T18:56:33.968Z,-2.90
2022-12-22T18:59:02.828Z,-2.89
2022-12-22T19:01:31.400Z,-2.88
2022-12-22T19:04:00.629Z,-2.89
2022-12-22T19:06:29.613Z,-2.89
2022-12-22T19:08:58.187Z,-2.90
2022-12-22T19:11:29.407Z,-2.94
2022-12-22T19:13:58.025Z,-2.98
2022-12-22T19:16:28.053Z,-3.03
2022-12-22T19:18:58.327Z,-3.07
2022-12-22T19:21:28.171Z,-3.09
2022-12-22T19:23:56.548Z,-3.11
2022-12-22T19:26:27.374Z,-3.11
2022-12-22T19:29:01.477Z,-3.12
2022-12-22T19:31:36.432Z,-3.09
2022-12-22T19:34:10.343Z,-3.08
2022-12-22T19:36:39.233Z,-3.07
2022-12-22T19:39:07.922Z,-3.10
2022-12-22T19:41:49.636Z,-3.12
2022-12-22T19:44:28.565Z,-3.12
2022-12-22T19:46:59.504Z,-3.11
2022-12-22T19:49:29.300Z,-3.09
2022-12-22T19:51:58.436Z,-3.07
2022-12-22T19:54:28.406Z,-3.05
2022-12-22T19:56:57.292Z,-2.99
2022-12-22T19:59:39.864Z,-2.94
2022-12-22T20:02:32.043Z,-2.93
2022-12-22T20:05:01.265Z,-2.93
2022-12-22T20:07:30.955Z,-2.93
2022-12-22T20:09:59.641Z,-2.91
2022-12-22T20:12:37.978Z,-2.87
2022-12-22T20:15:14.413Z,-2.84
2022-12-22T20:17:43.418Z,-2.80
2022-12-22T20:20:19.223Z,-2.77
2022-12-22T20:22:51.657Z,-2.75
2022-12-22T20:25:24.063Z,-2.69
2022-12-22T20:27:53.513Z,-2.62
2022-12-22T20:30:29.372Z,-2.57
2022-12-22T20:32:58.220Z,-2.53
2022-12-22T20:35:26.948Z,-2.51
2022-12-22T20:37:55.737Z,-2.52
2022-12-22T20:40:29.307Z,-2.52
2022-12-22T20:42:58.735Z,-2.57
2022-12-22T20:45:31.052Z,-2.61
2022-12-22T20:48:00.409Z,-2.63
2022-12-22T20:50:34.037Z,-2.61
2022-12-22T20:53:03.315Z,-2.60
2022-12-22T20:55:31.899Z,-2.66
2022-12-22T20:58:01.405Z,-2.70
2022-12-22T21:00:30.274Z,-2.69
2022-12-22T21:02:59.176Z,-2.74
2022-12-22T21:05:27.876Z,-2.78
2022-12-22T21:07:57.143Z,-2.78
2022-12-22T21:10:28.725Z,-2.85
2022-12-22T21:12:57.421Z,-2.89
2022-12-22T21:15:28.379Z,-2.95
2022-12-22T21:17:58.731Z,-2.97
2022-12-22T21:20:30.706Z,-2.97
2022-12-22T21:22:59.537Z,-2.99
2022-12-22T21:25:28.320Z,-3.01
2022-12-22T21:27:57.641Z,-3.05
2022-12-22T21:30:28.782Z,-3.13
2022-12-22T21:32:57.857Z,-3.20
2022-12-22T21:35:31.533Z,-3.28
2022-12-22T21:38:00.356Z,-3.32
2022-12-22T21:40:31.049Z,-3.38
2022-12-22T21:43:00.166Z,-3.42
2022-12-22T21:45:31.951Z,-3.44
2022-12-22T21:48:01.341Z,-3.43
2022-12-22T21:50:33.057Z,-3.47
2022-12-22T21:53:02.809Z,-3.50
2022-12-22T21:55:33.957Z,-3.55
2022-12-22T21:58:03.471Z,-3.63
2022-12-22T22:00:33.067Z,-3.72
2022-12-22T22:03:03.568Z,-3.76
2022-12-22T22:05:38.381Z,-3.80
2022-12-22T22:08:09.379Z,-3.82
2022-12-22T22:10:41.003Z,-3.85
2022-12-22T22:13:15.186Z,-3.85
2022-12-22T22:15:44.383Z,-3.87
2022-12-22T22:18:17.427Z,-3.87
2022-12-22T22:20:47.218Z,-3.89
2022-12-22T22:23:15.823Z,-3.90
2022-12-22T22:25:44.301Z,-3.90
2022-12-22T22:28:13.404Z,-3.90
2022-12-22T22:30:44.906Z,-3.89
2022-12-22T22:33:13.584Z,-3.89
2022-12-22T22:35:42.425Z,-3.92
2022-12-22T22:38:16.182Z,-3.95
2022-12-22T22:40:46.130Z,-3.99
2022-12-22T22:43:15.213Z,-4.03
2022-12-22T22:45:44.030Z,-4.05
2022-12-22T22:48:20.172Z,-4.05
2022-12-22T22:50:49.139Z,-4.04
2022-12-22T22:53:17.675Z,-4.02
2022-12-22T22:55:46.572Z,-3.99
2022-12-22T22:58:16.063Z,-3.96
2022-12-22T23:00:44.550Z,-3.94
2022-12-22T23:03:13.273Z,-3.93
2022-12-22T23:05:42.127Z,-3.91
2022-12-22T23:08:10.725Z,-3.89
2022-12-22T23:10:41.775Z,-3.90
2022-12-22T23:13:11.259Z,-3.89
2022-12-22T23:15:40.075Z,-3.86
2022-12-22T23:18:08.630Z,-3.85
2022-12-22T23:20:37.514Z,-3.87
2022-12-22T23:23:06.094Z,-3.86
2022-12-22T23:25:34.854Z,-3.84
2022-12-22T23:28:03.493Z,-3.83
2022-12-22T23:30:32.258Z,-3.81
2022-12-22T23:33:01.354Z,-3.81
2022-12-22T23:35:30.142Z,-3.80
2022-12-22T23:37:58.832Z,-3.78
2022-12-22T23:40:51.799Z,-3.75
2022-12-22T23:43:17.059Z,-3.74
2022-12-22T23:45:45.879Z,-3.74
2022-12-22T23:48:15.193Z,-3.70
2022-12-22T23:50:46.760Z,-3.64
2022-12-22T23:53:16.365Z,-3.63
2022-12-22T23:55:49.615Z,-3.63
2022-12-22T23:58:18.331Z,-3.61
